sensor_id;sensor_type;location;lat;lon;timestamp;temperature;humidity
71994;DHT22;59861;50.268;8.648;2023-03-13T00:00:58;15.80;51.80
71994;DHT22;59861;50.268;8.648;2023-03-13T00:03:26;15.80;51.80
71994;DHT22;59861;50.268;8.648;2023-03-13T00:05:56;15.80;51.80
71994;DHT22;59861;50.268;8.648;2023-03-13T00:08:24;15.80;52.00
71994;DHT22;59861;50.268;8.648;2023-03-13T00:10:50;15.80;51.70
71994;DHT22;59861;50.268;8.648;2023-03-13T00:13:17;15.80;51.80
71994;DHT22;59861;50.268;8.648;2023-03-13T00:15:44;15.80;51.80
71994;DHT22;59861;50.268;8.648;2023-03-13T00:18:11;15.80;51.80
71994;DHT22;59861;50.268;8.648;2023-03-13T00:20:38;15.80;51.70
71994;DHT22;59861;50.268;8.648;2023-03-13T00:23:04;15.80;51.70
71994;DHT22;59861;50.268;8.648;2023-03-13T00:25:31;15.70;51.70
71994;DHT22;59861;50.268;8.648;2023-03-13T00:27:58;15.70;51.70
71994;DHT22;59861;50.268;8.648;2023-03-13T00:30:25;15.70;51.60
71994;DHT22;59861;50.268;8.648;2023-03-13T00:32:52;15.70;51.70
71994;DHT22;59861;50.268;8.648;2023-03-13T00:35:18;15.70;51.70
71994;DHT22;59861;50.268;8.648;2023-03-13T00:37:45;15.70;51.80
71994;DHT22;59861;50.268;8.648;2023-03-13T00:40:12;15.70;51.80
71994;DHT22;59861;50.268;8.648;2023-03-13T00:42:39;15.70;51.80
71994;DHT22;59861;50.268;8.648;2023-03-13T00:45:06;15.70;51.70
71994;DHT22;59861;50.268;8.648;2023-03-13T00:47:33;15.70;51.70
71994;DHT22;59861;50.268;8.648;2023-03-13T00:49:59;15.70;51.70
71994;DHT22;59861;50.268;8.648;2023-03-13T00:52:26;15.60;52.10
71994;DHT22;59861;50.268;8.648;2023-03-13T00:54:53;15.60;51.70
71994;DHT22;59861;50.268;8.648;2023-03-13T00:57:20;15.60;51.60
71994;DHT22;59861;50.268;8.648;2023-03-13T00:59:47;15.60;51.60
71994;DHT22;59861;50.268;8.648;2023-03-13T01:02:14;15.60;51.60
71994;DHT22;59861;50.268;8.648;2023-03-13T01:04:40;15.60;51.60
71994;DHT22;59861;50.268;8.648;2023-03-13T01:07:07;15.60;51.60
71994;DHT22;59861;50.268;8.648;2023-03-13T01:09:34;15.60;51.60
71994;DHT22;59861;50.268;8.648;2023-03-13T01:12:01;15.60;51.60
71994;DHT22;59861;50.268;8.648;2023-03-13T01:14:27;15.60;51.60
71994;DHT22;59861;50.268;8.648;2023-03-13T01:16:54;15.60;51.60
71994;DHT22;59861;50.268;8.648;2023-03-13T01:19:21;15.60;51.50
71994;DHT22;59861;50.268;8.648;2023-03-13T01:21:48;15.60;51.60
71994;DHT22;59861;50.268;8.648;2023-03-13T01:24:15;15.60;51.50
71994;DHT22;59861;50.268;8.648;2023-03-13T01:26:42;15.60;51.60
71994;DHT22;59861;50.268;8.648;2023-03-13T01:29:09;15.60;51.60
71994;DHT22;59861;50.268;8.648;2023-03-13T01:31:36;15.60;51.50
71994;DHT22;59861;50.268;8.648;2023-03-13T01:34:03;15.60;51.60
71994;DHT22;59861;50.268;8.648;2023-03-13T01:36:31;15.60;51.50
71994;DHT22;59861;50.268;8.648;2023-03-13T01:38:58;15.50;51.40
71994;DHT22;59861;50.268;8.648;2023-03-13T01:41:27;15.60;51.50
71994;DHT22;59861;50.268;8.648;2023-03-13T01:43:54;15.60;51.50
71994;DHT22;59861;50.268;8.648;2023-03-13T01:46:25;15.50;51.50
71994;DHT22;59861;50.268;8.648;2023-03-13T01:49:06;15.50;51.50
71994;DHT22;59861;50.268;8.648;2023-03-13T01:51:34;15.50;51.40
71994;DHT22;59861;50.268;8.648;2023-03-13T01:54:08;15.50;51.50
71994;DHT22;59861;50.268;8.648;2023-03-13T01:56:40;15.50;51.40
71994;DHT22;59861;50.268;8.648;2023-03-13T01:59:04;15.50;51.40
71994;DHT22;59861;50.268;8.648;2023-03-13T02:01:32;15.50;51.40
71994;DHT22;59861;50.268;8.648;2023-03-13T02:03:59;15.50;51.40
71994;DHT22;59861;50.268;8.648;2023-03-13T02:06:26;15.50;51.40
71994;DHT22;59861;50.268;8.648;2023-03-13T02:08:55;15.50;51.40
71994;DHT22;59861;50.268;8.648;2023-03-13T02:11:31;15.50;51.40
71994;DHT22;59861;50.268;8.648;2023-03-13T02:13:57;15.40;51.40
71994;DHT22;59861;50.268;8.648;2023-03-13T02:16:24;15.50;51.40
71994;DHT22;59861;50.268;8.648;2023-03-13T02:18:51;15.50;51.40
71994;DHT22;59861;50.268;8.648;2023-03-13T02:21:41;15.50;51.40
71994;DHT22;59861;50.268;8.648;2023-03-13T02:23:49;15.40;51.40
71994;DHT22;59861;50.268;8.648;2023-03-13T02:26:15;15.40;51.50
71994;DHT22;59861;50.268;8.648;2023-03-13T02:28:42;15.40;51.50
71994;DHT22;59861;50.268;8.648;2023-03-13T02:31:08;15.40;51.80
71994;DHT22;59861;50.268;8.648;2023-03-13T02:33:37;15.40;52.00
71994;DHT22;59861;50.268;8.648;2023-03-13T02:36:04;15.40;52.10
71994;DHT22;59861;50.268;8.648;2023-03-13T02:38:33;15.30;52.30
71994;DHT22;59861;50.268;8.648;2023-03-13T02:41:01;15.30;52.40
71994;DHT22;59861;50.268;8.648;2023-03-13T02:43:30;15.30;52.40
71994;DHT22;59861;50.268;8.648;2023-03-13T02:46:08;15.30;52.50
71994;DHT22;59861;50.268;8.648;2023-03-13T02:48:42;15.30;52.50
71994;DHT22;59861;50.268;8.648;2023-03-13T02:53:47;15.30;52.60
71994;DHT22;59861;50.268;8.648;2023-03-13T02:56:14;15.30;52.50
71994;DHT22;59861;50.268;8.648;2023-03-13T02:58:43;15.30;52.50
71994;DHT22;59861;50.268;8.648;2023-03-13T03:01:10;15.30;52.60
71994;DHT22;59861;50.268;8.648;2023-03-13T03:03:36;15.30;52.50
71994;DHT22;59861;50.268;8.648;2023-03-13T03:06:04;15.30;52.60
71994;DHT22;59861;50.268;8.648;2023-03-13T03:08:31;15.30;52.50
71994;DHT22;59861;50.268;8.648;2023-03-13T03:10:58;15.30;52.60
71994;DHT22;59861;50.268;8.648;2023-03-13T03:13:25;15.30;52.60
71994;DHT22;59861;50.268;8.648;2023-03-13T03:15:52;15.30;52.60
71994;DHT22;59861;50.268;8.648;2023-03-13T03:18:19;15.30;52.60
71994;DHT22;59861;50.268;8.648;2023-03-13T03:20:46;15.30;52.60
71994;DHT22;59861;50.268;8.648;2023-03-13T03:23:12;15.30;52.60
71994;DHT22;59861;50.268;8.648;2023-03-13T03:25:39;15.30;52.70
71994;DHT22;59861;50.268;8.648;2023-03-13T03:28:06;15.30;52.60
71994;DHT22;59861;50.268;8.648;2023-03-13T03:30:33;15.30;52.70
71994;DHT22;59861;50.268;8.648;2023-03-13T03:33:01;15.30;52.60
71994;DHT22;59861;50.268;8.648;2023-03-13T03:35:29;15.30;53.20
71994;DHT22;59861;50.268;8.648;2023-03-13T03:37:55;15.20;52.60
71994;DHT22;59861;50.268;8.648;2023-03-13T03:40:22;15.30;52.60
71994;DHT22;59861;50.268;8.648;2023-03-13T03:42:49;15.30;52.60
71994;DHT22;59861;50.268;8.648;2023-03-13T03:45:16;15.30;52.60
71994;DHT22;59861;50.268;8.648;2023-03-13T03:47:43;15.30;52.60
71994;DHT22;59861;50.268;8.648;2023-03-13T03:50:10;15.30;52.60
71994;DHT22;59861;50.268;8.648;2023-03-13T03:52:37;15.30;52.60
71994;DHT22;59861;50.268;8.648;2023-03-13T03:55:04;15.30;52.60
71994;DHT22;59861;50.268;8.648;2023-03-13T03:57:31;15.30;52.60
71994;DHT22;59861;50.268;8.648;2023-03-13T03:59:57;15.30;52.60
71994;DHT22;59861;50.268;8.648;2023-03-13T04:02:24;15.30;52.60
71994;DHT22;59861;50.268;8.648;2023-03-13T04:04:51;15.30;52.60
71994;DHT22;59861;50.268;8.648;2023-03-13T04:07:18;15.30;52.60
71994;DHT22;59861;50.268;8.648;2023-03-13T04:09:45;15.30;52.50
71994;DHT22;59861;50.268;8.648;2023-03-13T04:12:11;15.30;52.50
71994;DHT22;59861;50.268;8.648;2023-03-13T04:14:38;15.30;52.40
71994;DHT22;59861;50.268;8.648;2023-03-13T04:17:05;15.30;52.70
71994;DHT22;59861;50.268;8.648;2023-03-13T04:19:32;15.30;52.30
71994;DHT22;59861;50.268;8.648;2023-03-13T04:21:59;15.30;52.40
71994;DHT22;59861;50.268;8.648;2023-03-13T04:24:25;15.30;52.40
71994;DHT22;59861;50.268;8.648;2023-03-13T04:26:52;15.30;52.30
71994;DHT22;59861;50.268;8.648;2023-03-13T04:29:19;15.30;52.40
71994;DHT22;59861;50.268;8.648;2023-03-13T04:31:46;15.30;52.30
71994;DHT22;59861;50.268;8.648;2023-03-13T04:34:13;15.30;52.40
71994;DHT22;59861;50.268;8.648;2023-03-13T04:36:39;15.30;52.30
71994;DHT22;59861;50.268;8.648;2023-03-13T04:39:06;15.30;52.40
71994;DHT22;59861;50.268;8.648;2023-03-13T04:41:33;15.30;52.30
71994;DHT22;59861;50.268;8.648;2023-03-13T04:44:00;15.30;52.40
71994;DHT22;59861;50.268;8.648;2023-03-13T04:46:27;15.30;52.30
71994;DHT22;59861;50.268;8.648;2023-03-13T04:48:53;15.30;52.30
71994;DHT22;59861;50.268;8.648;2023-03-13T04:51:20;15.30;52.30
71994;DHT22;59861;50.268;8.648;2023-03-13T04:53:47;15.30;52.30
71994;DHT22;59861;50.268;8.648;2023-03-13T04:56:20;15.30;52.30
71994;DHT22;59861;50.268;8.648;2023-03-13T04:58:42;15.30;52.20
71994;DHT22;59861;50.268;8.648;2023-03-13T05:01:09;15.30;52.30
71994;DHT22;59861;50.268;8.648;2023-03-13T05:03:36;15.30;52.20
71994;DHT22;59861;50.268;8.648;2023-03-13T05:06:02;15.30;52.40
71994;DHT22;59861;50.268;8.648;2023-03-13T05:08:29;15.20;52.40
71994;DHT22;59861;50.268;8.648;2023-03-13T05:10:56;15.20;52.60
71994;DHT22;59861;50.268;8.648;2023-03-13T05:13:23;15.20;52.70
71994;DHT22;59861;50.268;8.648;2023-03-13T05:15:50;15.20;52.80
71994;DHT22;59861;50.268;8.648;2023-03-13T05:18:17;15.20;52.90
71994;DHT22;59861;50.268;8.648;2023-03-13T05:20:43;15.20;53.00
71994;DHT22;59861;50.268;8.648;2023-03-13T05:23:10;15.20;53.10
71994;DHT22;59861;50.268;8.648;2023-03-13T05:25:37;15.20;53.00
71994;DHT22;59861;50.268;8.648;2023-03-13T05:28:04;15.20;53.10
71994;DHT22;59861;50.268;8.648;2023-03-13T05:30:30;15.20;53.00
71994;DHT22;59861;50.268;8.648;2023-03-13T05:32:57;15.20;53.00
71994;DHT22;59861;50.268;8.648;2023-03-13T05:35:24;15.20;53.00
71994;DHT22;59861;50.268;8.648;2023-03-13T05:37:51;15.20;53.10
71994;DHT22;59861;50.268;8.648;2023-03-13T05:40:18;15.20;53.10
71994;DHT22;59861;50.268;8.648;2023-03-13T05:42:44;15.20;53.10
71994;DHT22;59861;50.268;8.648;2023-03-13T05:45:11;15.20;53.10
71994;DHT22;59861;50.268;8.648;2023-03-13T05:47:38;15.20;53.10
71994;DHT22;59861;50.268;8.648;2023-03-13T05:50:06;15.20;53.30
71994;DHT22;59861;50.268;8.648;2023-03-13T05:52:33;15.20;53.30
71994;DHT22;59861;50.268;8.648;2023-03-13T05:54:59;15.20;53.40
71994;DHT22;59861;50.268;8.648;2023-03-13T05:57:26;15.20;53.40
71994;DHT22;59861;50.268;8.648;2023-03-13T05:59:53;15.20;53.40
71994;DHT22;59861;50.268;8.648;2023-03-13T06:02:20;15.20;53.60
71994;DHT22;59861;50.268;8.648;2023-03-13T06:04:47;15.20;53.50
71994;DHT22;59861;50.268;8.648;2023-03-13T06:07:14;15.20;53.50
71994;DHT22;59861;50.268;8.648;2023-03-13T06:09:40;15.20;53.50
71994;DHT22;59861;50.268;8.648;2023-03-13T06:12:08;15.20;53.50
71994;DHT22;59861;50.268;8.648;2023-03-13T06:14:35;15.20;53.50
71994;DHT22;59861;50.268;8.648;2023-03-13T06:17:03;15.20;53.50
71994;DHT22;59861;50.268;8.648;2023-03-13T06:19:30;15.20;53.50
71994;DHT22;59861;50.268;8.648;2023-03-13T06:21:57;15.20;53.50
71994;DHT22;59861;50.268;8.648;2023-03-13T06:24:24;15.20;53.50
71994;DHT22;59861;50.268;8.648;2023-03-13T06:26:50;15.20;53.60
71994;DHT22;59861;50.268;8.648;2023-03-13T06:29:17;15.20;53.60
71994;DHT22;59861;50.268;8.648;2023-03-13T06:31:44;15.20;53.60
71994;DHT22;59861;50.268;8.648;2023-03-13T06:34:11;15.20;53.50
71994;DHT22;59861;50.268;8.648;2023-03-13T06:36:39;15.20;53.60
71994;DHT22;59861;50.268;8.648;2023-03-13T06:39:05;15.20;53.60
71994;DHT22;59861;50.268;8.648;2023-03-13T06:41:33;15.20;53.60
71994;DHT22;59861;50.268;8.648;2023-03-13T06:43:59;15.20;53.60
71994;DHT22;59861;50.268;8.648;2023-03-13T06:46:26;15.20;53.60
71994;DHT22;59861;50.268;8.648;2023-03-13T06:48:53;15.20;53.60
71994;DHT22;59861;50.268;8.648;2023-03-13T06:51:20;15.20;53.60
71994;DHT22;59861;50.268;8.648;2023-03-13T06:53:47;15.20;53.60
71994;DHT22;59861;50.268;8.648;2023-03-13T06:56:16;15.20;53.60
71994;DHT22;59861;50.268;8.648;2023-03-13T06:58:47;15.20;53.70
71994;DHT22;59861;50.268;8.648;2023-03-13T07:01:15;15.20;54.10
71994;DHT22;59861;50.268;8.648;2023-03-13T07:03:42;15.20;53.70
71994;DHT22;59861;50.268;8.648;2023-03-13T07:06:10;15.20;53.60
71994;DHT22;59861;50.268;8.648;2023-03-13T07:08:37;15.20;54.40
71994;DHT22;59861;50.268;8.648;2023-03-13T07:11:05;15.20;53.60
71994;DHT22;59861;50.268;8.648;2023-03-13T07:13:32;15.20;53.70
71994;DHT22;59861;50.268;8.648;2023-03-13T07:16:00;15.20;53.70
71994;DHT22;59861;50.268;8.648;2023-03-13T07:18:28;15.20;53.70
71994;DHT22;59861;50.268;8.648;2023-03-13T07:20:56;15.20;53.60
71994;DHT22;59861;50.268;8.648;2023-03-13T07:23:23;15.20;53.60
71994;DHT22;59861;50.268;8.648;2023-03-13T07:25:54;15.20;53.60
71994;DHT22;59861;50.268;8.648;2023-03-13T07:28:21;15.20;53.60
71994;DHT22;59861;50.268;8.648;2023-03-13T07:30:48;15.20;53.60
71994;DHT22;59861;50.268;8.648;2023-03-13T07:33:15;15.20;53.70
71994;DHT22;59861;50.268;8.648;2023-03-13T07:35:51;15.20;53.60
71994;DHT22;59861;50.268;8.648;2023-03-13T07:38:18;15.20;54.30
71994;DHT22;59861;50.268;8.648;2023-03-13T07:40:52;15.20;53.60
71994;DHT22;59861;50.268;8.648;2023-03-13T07:43:19;15.20;53.60
71994;DHT22;59861;50.268;8.648;2023-03-13T07:46:05;15.20;53.60
71994;DHT22;59861;50.268;8.648;2023-03-13T07:48:17;15.20;53.60
71994;DHT22;59861;50.268;8.648;2023-03-13T07:50:44;15.20;53.60
71994;DHT22;59861;50.268;8.648;2023-03-13T07:53:11;15.20;53.40
71994;DHT22;59861;50.268;8.648;2023-03-13T07:55:38;15.20;53.40
71994;DHT22;59861;50.268;8.648;2023-03-13T07:58:05;15.30;53.30
71994;DHT22;59861;50.268;8.648;2023-03-13T08:00:32;15.30;53.30
71994;DHT22;59861;50.268;8.648;2023-03-13T08:02:59;15.30;53.30
71994;DHT22;59861;50.268;8.648;2023-03-13T08:05:25;15.30;53.20
71994;DHT22;59861;50.268;8.648;2023-03-13T08:07:52;15.30;53.20
71994;DHT22;59861;50.268;8.648;2023-03-13T08:10:19;15.30;53.20
71994;DHT22;59861;50.268;8.648;2023-03-13T08:12:46;15.30;53.20
71994;DHT22;59861;50.268;8.648;2023-03-13T08:15:13;15.30;53.10
71994;DHT22;59861;50.268;8.648;2023-03-13T08:17:39;15.30;53.10
71994;DHT22;59861;50.268;8.648;2023-03-13T08:20:06;15.30;53.00
71994;DHT22;59861;50.268;8.648;2023-03-13T08:22:34;15.40;53.00
71994;DHT22;59861;50.268;8.648;2023-03-13T08:25:03;15.30;53.10
71994;DHT22;59861;50.268;8.648;2023-03-13T08:27:30;15.40;53.10
71994;DHT22;59861;50.268;8.648;2023-03-13T08:29:57;15.40;52.90
71994;DHT22;59861;50.268;8.648;2023-03-13T08:32:24;15.40;52.90
71994;DHT22;59861;50.268;8.648;2023-03-13T08:34:50;15.40;52.80
71994;DHT22;59861;50.268;8.648;2023-03-13T08:37:17;15.40;52.80
71994;DHT22;59861;50.268;8.648;2023-03-13T08:39:44;15.40;52.60
71994;DHT22;59861;50.268;8.648;2023-03-13T08:42:12;15.40;52.70
71994;DHT22;59861;50.268;8.648;2023-03-13T08:44:39;15.40;52.60
71994;DHT22;59861;50.268;8.648;2023-03-13T08:47:07;15.40;52.60
71994;DHT22;59861;50.268;8.648;2023-03-13T08:49:33;15.40;52.70
71994;DHT22;59861;50.268;8.648;2023-03-13T08:52:00;15.40;52.80
71994;DHT22;59861;50.268;8.648;2023-03-13T08:54:29;15.40;52.80
71994;DHT22;59861;50.268;8.648;2023-03-13T08:56:56;15.40;52.80
71994;DHT22;59861;50.268;8.648;2023-03-13T08:59:24;15.40;52.80
71994;DHT22;59861;50.268;8.648;2023-03-13T09:01:51;15.40;52.90
71994;DHT22;59861;50.268;8.648;2023-03-13T09:04:18;15.40;52.80
71994;DHT22;59861;50.268;8.648;2023-03-13T09:06:45;15.40;52.90
71994;DHT22;59861;50.268;8.648;2023-03-13T09:09:12;15.40;52.80
71994;DHT22;59861;50.268;8.648;2023-03-13T09:11:39;15.40;52.90
71994;DHT22;59861;50.268;8.648;2023-03-13T09:14:06;15.40;52.80
71994;DHT22;59861;50.268;8.648;2023-03-13T09:16:33;15.40;52.80
71994;DHT22;59861;50.268;8.648;2023-03-13T09:19:00;15.40;52.70
71994;DHT22;59861;50.268;8.648;2023-03-13T09:21:31;15.40;52.70
71994;DHT22;59861;50.268;8.648;2023-03-13T09:23:58;15.40;52.70
71994;DHT22;59861;50.268;8.648;2023-03-13T09:26:26;15.40;52.70
71994;DHT22;59861;50.268;8.648;2023-03-13T09:28:53;15.40;52.70
71994;DHT22;59861;50.268;8.648;2023-03-13T09:31:21;15.40;53.20
71994;DHT22;59861;50.268;8.648;2023-03-13T09:33:48;15.30;52.60
71994;DHT22;59861;50.268;8.648;2023-03-13T09:36:16;15.40;52.70
71994;DHT22;59861;50.268;8.648;2023-03-13T09:38:43;15.40;53.00
71994;DHT22;59861;50.268;8.648;2023-03-13T09:43:43;15.40;52.60
71994;DHT22;59861;50.268;8.648;2023-03-13T09:46:19;15.30;52.60
71994;DHT22;59861;50.268;8.648;2023-03-13T09:48:52;15.40;52.50
71994;DHT22;59861;50.268;8.648;2023-03-13T09:51:36;15.40;52.40
71994;DHT22;59861;50.268;8.648;2023-03-13T09:54:23;15.40;52.40
71994;DHT22;59861;50.268;8.648;2023-03-13T09:56:55;15.40;52.40
71994;DHT22;59861;50.268;8.648;2023-03-13T10:01:49;15.40;52.40
71994;DHT22;59861;50.268;8.648;2023-03-13T10:06:47;15.40;52.50
71994;DHT22;59861;50.268;8.648;2023-03-13T10:09:15;15.30;53.00
71994;DHT22;59861;50.268;8.648;2023-03-13T10:11:50;15.30;53.20
71994;DHT22;59861;50.268;8.648;2023-03-13T10:14:29;15.20;53.50
71994;DHT22;59861;50.268;8.648;2023-03-13T10:19:34;15.20;53.60
71994;DHT22;59861;50.268;8.648;2023-03-13T10:22:01;15.20;53.60
71994;DHT22;59861;50.268;8.648;2023-03-13T10:24:32;15.20;53.60
71994;DHT22;59861;50.268;8.648;2023-03-13T10:26:59;15.20;53.60
71994;DHT22;59861;50.268;8.648;2023-03-13T10:29:26;15.20;53.60
71994;DHT22;59861;50.268;8.648;2023-03-13T10:31:55;15.30;53.60
71994;DHT22;59861;50.268;8.648;2023-03-13T10:34:23;15.30;53.70
71994;DHT22;59861;50.268;8.648;2023-03-13T10:36:54;15.30;53.60
71994;DHT22;59861;50.268;8.648;2023-03-13T10:39:23;15.30;53.50
71994;DHT22;59861;50.268;8.648;2023-03-13T10:41:50;15.30;53.60
71994;DHT22;59861;50.268;8.648;2023-03-13T10:44:19;15.30;53.60
71994;DHT22;59861;50.268;8.648;2023-03-13T10:46:47;15.30;53.60
71994;DHT22;59861;50.268;8.648;2023-03-13T10:49:18;15.40;53.60
71994;DHT22;59861;50.268;8.648;2023-03-13T10:51:46;15.30;53.50
71994;DHT22;59861;50.268;8.648;2023-03-13T10:54:14;15.30;53.50
71994;DHT22;59861;50.268;8.648;2023-03-13T10:56:41;15.30;53.60
71994;DHT22;59861;50.268;8.648;2023-03-13T10:59:18;15.40;53.50
71994;DHT22;59861;50.268;8.648;2023-03-13T11:01:46;15.40;53.50
71994;DHT22;59861;50.268;8.648;2023-03-13T11:04:24;15.40;53.50
71994;DHT22;59861;50.268;8.648;2023-03-13T11:06:50;15.40;53.50
71994;DHT22;59861;50.268;8.648;2023-03-13T11:09:18;15.40;53.50
71994;DHT22;59861;50.268;8.648;2023-03-13T11:11:46;15.40;53.40
71994;DHT22;59861;50.268;8.648;2023-03-13T11:14:17;15.40;53.30
71994;DHT22;59861;50.268;8.648;2023-03-13T11:16:45;15.40;53.30
71994;DHT22;59861;50.268;8.648;2023-03-13T11:19:19;15.40;53.40
71994;DHT22;59861;50.268;8.648;2023-03-13T11:21:52;15.40;53.50
71994;DHT22;59861;50.268;8.648;2023-03-13T11:24:22;15.40;53.40
71994;DHT22;59861;50.268;8.648;2023-03-13T11:26:56;15.40;53.40
71994;DHT22;59861;50.268;8.648;2023-03-13T11:29:26;15.40;53.40
71994;DHT22;59861;50.268;8.648;2023-03-13T11:31:57;15.40;53.40
71994;DHT22;59861;50.268;8.648;2023-03-13T11:34:21;15.40;53.40
71994;DHT22;59861;50.268;8.648;2023-03-13T11:36:51;15.40;53.40
71994;DHT22;59861;50.268;8.648;2023-03-13T11:41:51;15.40;53.20
71994;DHT22;59861;50.268;8.648;2023-03-13T11:44:22;15.40;53.10
71994;DHT22;59861;50.268;8.648;2023-03-13T11:54:44;15.40;52.90
71994;DHT22;59861;50.268;8.648;2023-03-13T11:57:11;15.40;52.80
71994;DHT22;59861;50.268;8.648;2023-03-13T12:00:02;15.40;52.90
71994;DHT22;59861;50.268;8.648;2023-03-13T12:02:17;15.40;52.80
71994;DHT22;59861;50.268;8.648;2023-03-13T12:04:43;15.40;52.90
71994;DHT22;59861;50.268;8.648;2023-03-13T12:09:48;15.40;52.70
71994;DHT22;59861;50.268;8.648;2023-03-13T12:14:59;15.40;52.70
71994;DHT22;59861;50.268;8.648;2023-03-13T12:17:33;15.40;52.60
71994;DHT22;59861;50.268;8.648;2023-03-13T12:20:05;15.40;52.60
71994;DHT22;59861;50.268;8.648;2023-03-13T12:25:26;15.40;52.70
71994;DHT22;59861;50.268;8.648;2023-03-13T12:28:02;15.40;52.80
71994;DHT22;59861;50.268;8.648;2023-03-13T12:33:20;15.40;52.90
71994;DHT22;59861;50.268;8.648;2023-03-13T12:35:31;15.40;52.90
71994;DHT22;59861;50.268;8.648;2023-03-13T12:40:32;15.40;53.00
71994;DHT22;59861;50.268;8.648;2023-03-13T12:45:36;15.40;53.10
71994;DHT22;59861;50.268;8.648;2023-03-13T12:53:04;15.40;53.00
71994;DHT22;59861;50.268;8.648;2023-03-13T12:58:21;15.40;53.00
71994;DHT22;59861;50.268;8.648;2023-03-13T13:00:47;15.40;52.90
71994;DHT22;59861;50.268;8.648;2023-03-13T13:03:19;15.40;52.80
71994;DHT22;59861;50.268;8.648;2023-03-13T13:05:59;15.40;52.80
71994;DHT22;59861;50.268;8.648;2023-03-13T13:08:26;15.40;52.80
71994;DHT22;59861;50.268;8.648;2023-03-13T13:10:55;15.40;52.90
71994;DHT22;59861;50.268;8.648;2023-03-13T13:13:34;15.40;52.80
71994;DHT22;59861;50.268;8.648;2023-03-13T13:16:04;15.50;52.90
71994;DHT22;59861;50.268;8.648;2023-03-13T13:18:33;15.50;52.80
71994;DHT22;59861;50.268;8.648;2023-03-13T13:23:32;15.50;52.70
71994;DHT22;59861;50.268;8.648;2023-03-13T13:28:47;15.50;52.70
71994;DHT22;59861;50.268;8.648;2023-03-13T13:33:59;15.50;52.70
71994;DHT22;59861;50.268;8.648;2023-03-13T13:36:26;15.50;52.60
71994;DHT22;59861;50.268;8.648;2023-03-13T13:38:53;15.50;52.60
71994;DHT22;59861;50.268;8.648;2023-03-13T13:41:22;15.50;52.60
71994;DHT22;59861;50.268;8.648;2023-03-13T13:44:25;15.50;52.60
71994;DHT22;59861;50.268;8.648;2023-03-13T13:46:26;15.50;52.70
71994;DHT22;59861;50.268;8.648;2023-03-13T13:49:50;15.50;52.60
71994;DHT22;59861;50.268;8.648;2023-03-13T13:51:23;15.50;52.60
71994;DHT22;59861;50.268;8.648;2023-03-13T13:53:51;15.50;52.60
71994;DHT22;59861;50.268;8.648;2023-03-13T14:01:43;15.50;52.60
71994;DHT22;59861;50.268;8.648;2023-03-13T14:04:25;15.50;52.70
71994;DHT22;59861;50.268;8.648;2023-03-13T14:06:51;15.50;52.80
71994;DHT22;59861;50.268;8.648;2023-03-13T14:09:35;15.50;52.80
71994;DHT22;59861;50.268;8.648;2023-03-13T14:12:01;15.50;52.90
71994;DHT22;59861;50.268;8.648;2023-03-13T14:14:30;15.50;52.90
71994;DHT22;59861;50.268;8.648;2023-03-13T14:16:57;15.50;52.90
71994;DHT22;59861;50.268;8.648;2023-03-13T14:19:27;15.50;52.90
71994;DHT22;59861;50.268;8.648;2023-03-13T14:22:04;15.50;52.90
71994;DHT22;59861;50.268;8.648;2023-03-13T14:24:31;15.50;52.90
71994;DHT22;59861;50.268;8.648;2023-03-13T14:26:59;15.50;53.00
71994;DHT22;59861;50.268;8.648;2023-03-13T14:29:26;15.50;53.10
71994;DHT22;59861;50.268;8.648;2023-03-13T14:31:58;15.50;53.10
71994;DHT22;59861;50.268;8.648;2023-03-13T14:34:21;15.50;53.10
71994;DHT22;59861;50.268;8.648;2023-03-13T14:36:53;15.50;53.00
71994;DHT22;59861;50.268;8.648;2023-03-13T14:39:17;15.50;53.00
71994;DHT22;59861;50.268;8.648;2023-03-13T14:41:45;15.50;52.90
71994;DHT22;59861;50.268;8.648;2023-03-13T14:44:26;15.50;53.00
71994;DHT22;59861;50.268;8.648;2023-03-13T14:47:00;15.50;53.10
71994;DHT22;59861;50.268;8.648;2023-03-13T14:49:27;15.50;53.20
71994;DHT22;59861;50.268;8.648;2023-03-13T14:51:57;15.50;53.20
71994;DHT22;59861;50.268;8.648;2023-03-13T14:54:25;15.50;53.30
71994;DHT22;59861;50.268;8.648;2023-03-13T14:57:11;15.50;53.90
71994;DHT22;59861;50.268;8.648;2023-03-13T14:59:33;15.50;53.30
71994;DHT22;59861;50.268;8.648;2023-03-13T15:05:04;15.50;53.30
71994;DHT22;59861;50.268;8.648;2023-03-13T15:07:36;15.50;53.50
71994;DHT22;59861;50.268;8.648;2023-03-13T15:12:46;15.40;53.30
71994;DHT22;59861;50.268;8.648;2023-03-13T15:15:14;15.50;53.40
71994;DHT22;59861;50.268;8.648;2023-03-13T15:17:40;15.50;53.40
71994;DHT22;59861;50.268;8.648;2023-03-13T15:20:09;15.50;53.30
71994;DHT22;59861;50.268;8.648;2023-03-13T15:22:37;15.50;53.30
71994;DHT22;59861;50.268;8.648;2023-03-13T15:25:18;15.50;53.20
71994;DHT22;59861;50.268;8.648;2023-03-13T15:27:45;15.50;53.20
71994;DHT22;59861;50.268;8.648;2023-03-13T15:30:15;15.50;53.20
71994;DHT22;59861;50.268;8.648;2023-03-13T15:32:43;15.50;53.20
71994;DHT22;59861;50.268;8.648;2023-03-13T15:35:20;15.50;53.30
71994;DHT22;59861;50.268;8.648;2023-03-13T15:37:39;15.50;53.70
71994;DHT22;59861;50.268;8.648;2023-03-13T15:40:12;15.50;53.90
71994;DHT22;59861;50.268;8.648;2023-03-13T15:42:34;15.40;54.00
71994;DHT22;59861;50.268;8.648;2023-03-13T15:45:01;15.40;54.40
71994;DHT22;59861;50.268;8.648;2023-03-13T15:47:28;15.40;54.60
71994;DHT22;59861;50.268;8.648;2023-03-13T15:49:55;15.50;54.60
71994;DHT22;59861;50.268;8.648;2023-03-13T15:52:22;15.50;54.60
71994;DHT22;59861;50.268;8.648;2023-03-13T15:54:49;15.50;54.80
71994;DHT22;59861;50.268;8.648;2023-03-13T15:57:27;15.50;55.10
71994;DHT22;59861;50.268;8.648;2023-03-13T15:59:51;15.40;55.20
71994;DHT22;59861;50.268;8.648;2023-03-13T16:02:19;15.40;56.00
71994;DHT22;59861;50.268;8.648;2023-03-13T16:04:46;15.40;55.40
71994;DHT22;59861;50.268;8.648;2023-03-13T16:07:15;15.40;55.50
71994;DHT22;59861;50.268;8.648;2023-03-13T16:09:42;15.40;55.50
71994;DHT22;59861;50.268;8.648;2023-03-13T16:12:09;15.50;55.60
71994;DHT22;59861;50.268;8.648;2023-03-13T16:14:36;15.50;55.60
71994;DHT22;59861;50.268;8.648;2023-03-13T16:17:25;15.50;55.60
71994;DHT22;59861;50.268;8.648;2023-03-13T16:19:32;15.50;55.70
71994;DHT22;59861;50.268;8.648;2023-03-13T16:21:58;15.50;55.70
71994;DHT22;59861;50.268;8.648;2023-03-13T16:24:25;15.50;55.70
71994;DHT22;59861;50.268;8.648;2023-03-13T16:26:53;15.50;55.70
71994;DHT22;59861;50.268;8.648;2023-03-13T16:29:20;15.60;55.80
71994;DHT22;59861;50.268;8.648;2023-03-13T16:31:47;15.60;55.80
71994;DHT22;59861;50.268;8.648;2023-03-13T16:34:13;15.60;55.80
71994;DHT22;59861;50.268;8.648;2023-03-13T16:36:40;15.60;55.80
71994;DHT22;59861;50.268;8.648;2023-03-13T16:39:17;15.60;55.80
71994;DHT22;59861;50.268;8.648;2023-03-13T16:41:35;15.60;55.80